createdAt,value
2022-10-23T00:01:16.265Z,5.70
2022-10-23T00:03:45.394Z,5.00
2022-10-23T00:06:14.489Z,5.83
2022-10-23T00:08:43.066Z,5.53
2022-10-23T00:11:12.115Z,5.90
2022-10-23T00:13:40.903Z,5.93
2022-10-23T00:16:11.033Z,5.20
2022-10-23T00:18:39.870Z,6.07
2022-10-23T00:21:10.240Z,5.80
2022-10-23T00:23:38.524Z,5.07
2022-10-23T00:26:08.038Z,5.23
2022-10-23T00:28:37.708Z,4.90
2022-10-23T00:31:06.994Z,5.10
2022-10-23T00:33:37.233Z,5.23
2022-10-23T00:36:07.245Z,5.40
2022-10-23T00:38:35.749Z,5.83
2022-10-23T00:41:04.417Z,5.73
2022-10-23T00:43:33.356Z,6.10
2022-10-23T00:46:01.830Z,5.50
2022-10-23T00:48:30.497Z,5.97
2022-10-23T00:51:00.008Z,5.30
2022-10-23T00:53:28.112Z,5.07
2022-10-23T00:55:57.729Z,5.40
2022-10-23T00:58:25.815Z,5.37
2022-10-23T01:00:56.047Z,5.17
2022-10-23T01:03:27.082Z,6.07
2022-10-23T01:06:02.674Z,5.33
2022-10-23T01:08:36.240Z,4.60
2022-10-23T01:11:11.558Z,5.50
2022-10-23T01:13:49.695Z,5.37
2022-10-23T01:16:23.129Z,4.47
2022-10-23T01:18:59.384Z,5.30
2022-10-23T01:21:40.113Z,4.60
2022-10-23T01:24:13.213Z,4.40
2022-10-23T01:26:56.408Z,5.10
2022-10-23T01:29:31.045Z,4.77
2022-10-23T01:32:05.298Z,5.00
2022-10-23T01:34:42.812Z,4.90
2022-10-23T01:37:14.693Z,5.20
2022-10-23T01:39:49.092Z,5.00
2022-10-23T01:42:22.080Z,4.50
2022-10-23T01:44:55.530Z,5.17
2022-10-23T01:47:29.344Z,4.47
2022-10-23T01:50:07.271Z,4.80
2022-10-23T01:52:35.983Z,4.63
2022-10-23T01:55:08.395Z,4.37
2022-10-23T01:57:38.641Z,4.50
2022-10-23T02:00:11.064Z,4.50
2022-10-23T02:02:53.735Z,4.60
2022-10-23T02:05:27.771Z,4.13
2022-10-23T02:07:58.225Z,4.90
2022-10-23T02:10:30.986Z,4.47
2022-10-23T02:13:03.908Z,3.83
2022-10-23T02:15:38.559Z,4.30
2022-10-23T02:18:13.423Z,5.17
2022-10-23T02:23:22.021Z,4.40
2022-10-23T02:25:55.384Z,4.33
2022-10-23T02:28:28.892Z,4.53
2022-10-23T02:31:04.160Z,4.03
2022-10-23T02:33:34.341Z,4.73
2022-10-23T02:36:02.812Z,4.50
2022-10-23T02:38:35.085Z,4.37
2022-10-23T02:41:15.533Z,4.17
2022-10-23T02:43:52.035Z,4.37
2022-10-23T02:46:26.487Z,4.63
2022-10-23T02:49:05.070Z,4.77
2022-10-23T02:51:40.782Z,4.60
2022-10-23T02:54:17.072Z,4.30
2022-10-23T02:56:54.427Z,3.30
2022-10-23T02:59:28.379Z,3.80
2022-10-23T03:02:04.317Z,3.87
2022-10-23T03:04:33.787Z,3.70
2022-10-23T03:07:02.139Z,3.70
2022-10-23T03:09:32.029Z,4.07
2022-10-23T03:12:00.180Z,4.43
2022-10-23T03:14:28.267Z,3.60
2022-10-23T03:16:57.943Z,3.20
2022-10-23T03:19:27.113Z,3.73
2022-10-23T03:21:55.214Z,3.73
2022-10-23T03:24:23.309Z,3.83
2022-10-23T03:26:51.443Z,4.00
2022-10-23T03:29:25.990Z,3.30
2022-10-23T03:31:55.575Z,3.60
2022-10-23T03:34:25.207Z,3.87
2022-10-23T03:36:54.677Z,3.93
2022-10-23T03:39:22.776Z,2.83
2022-10-23T03:41:50.995Z,3.00
2022-10-23T03:44:19.682Z,3.67
2022-10-23T03:46:47.773Z,3.60
2022-10-23T03:49:15.916Z,3.30
2022-10-23T03:51:51.954Z,4.10
2022-10-23T03:54:23.504Z,3.73
2022-10-23T03:56:55.009Z,3.27
2022-10-23T03:59:25.684Z,3.17
2022-10-23T04:01:54.136Z,3.50
2022-10-23T04:04:22.346Z,3.27
2022-10-23T04:06:51.842Z,3.40
2022-10-23T04:09:21.001Z,3.10
2022-10-23T04:11:49.119Z,3.00
2022-10-23T04:14:18.156Z,3.53
2022-10-23T04:16:46.259Z,3.67
2022-10-23T04:19:14.395Z,3.60
2022-10-23T04:21:42.586Z,3.03
2022-10-23T04:24:12.422Z,3.10
2022-10-23T04:26:40.848Z,3.27
2022-10-23T04:29:11.645Z,3.20
2022-10-23T04:31:39.779Z,2.60
2022-10-23T04:34:07.892Z,2.97
2022-10-23T04:36:37.143Z,2.90
2022-10-23T04:39:12.899Z,3.20
2022-10-23T04:41:41.137Z,3.00
2022-10-23T04:44:09.552Z,3.63
2022-10-23T04:46:41.995Z,3.13
2022-10-23T04:49:11.167Z,2.20
2022-10-23T04:51:57.547Z,3.20
2022-10-23T04:54:42.016Z,3.00
2022-10-23T04:57:32.453Z,3.33
2022-10-23T05:00:11.292Z,2.90
2022-10-23T05:02:47.076Z,3.33
2022-10-23T05:05:17.926Z,2.57
2022-10-23T05:07:54.695Z,2.50
2022-10-23T05:10:38.918Z,3.13
2022-10-23T05:13:11.946Z,2.70
2022-10-23T05:15:41.379Z,2.70
2022-10-23T05:18:14.275Z,2.43
2022-10-23T05:20:43.687Z,2.47
2022-10-23T05:23:15.891Z,2.80
2022-10-23T05:25:54.660Z,2.40
2022-10-23T05:28:23.474Z,2.87
2022-10-23T05:30:52.676Z,2.43
2022-10-23T05:33:28.834Z,2.60
2022-10-23T05:35:57.998Z,2.80
2022-10-23T05:38:27.781Z,2.67
2022-10-23T05:40:57.468Z,2.70
2022-10-23T05:43:26.931Z,2.43
2022-10-23T05:46:04.955Z,2.40
2022-10-23T05:48:35.216Z,2.63
2022-10-23T05:51:20.256Z,2.20
2022-10-23T05:54:27.185Z,2.30
2022-10-23T05:57:19.916Z,2.43
2022-10-23T05:59:52.862Z,2.13
2022-10-23T06:02:41.256Z,2.60
2022-10-23T06:05:30.187Z,2.53
2022-10-23T06:08:20.199Z,2.73
2022-10-23T06:10:51.005Z,2.70
2022-10-23T06:13:21.304Z,2.23
2022-10-23T06:15:49.570Z,2.70
2022-10-23T06:18:21.284Z,2.43
2022-10-23T06:20:56.848Z,2.90
2022-10-23T06:23:27.303Z,2.57
2022-10-23T06:26:24.343Z,2.10
2022-10-23T06:29:09.407Z,2.67
2022-10-23T06:31:38.210Z,1.90
2022-10-23T06:34:07.268Z,2.47
2022-10-23T06:36:37.975Z,2.30
2022-10-23T06:39:24.381Z,2.20
2022-10-23T06:42:02.949Z,2.03
2022-10-23T06:45:06.515Z,2.30
2022-10-23T06:47:55.660Z,2.50
2022-10-23T06:50:46.711Z,2.80
2022-10-23T06:53:19.588Z,2.67
2022-10-23T06:55:55.462Z,4.80
2022-10-23T06:58:24.199Z,5.70
2022-10-23T07:01:04.442Z,4.73
2022-10-23T07:03:32.784Z,4.87
2022-10-23T07:06:07.129Z,5.40
2022-10-23T07:08:35.368Z,4.80
2022-10-23T07:11:08.957Z,5.03
2022-10-23T07:13:38.678Z,5.10
2022-10-23T07:16:19.245Z,5.00
2022-10-23T07:18:48.670Z,4.23
2022-10-23T07:21:42.651Z,5.30
2022-10-23T07:24:48.986Z,4.97
2022-10-23T07:27:31.202Z,4.37
2022-10-23T07:30:02.605Z,4.77
2022-10-23T07:32:37.616Z,5.17
2022-10-23T07:35:24.391Z,3.93
2022-10-23T07:38:01.573Z,4.30
2022-10-23T07:40:33.392Z,4.63
2022-10-23T07:43:01.657Z,4.40
2022-10-23T07:45:29.738Z,3.57
2022-10-23T07:47:59.983Z,4.10
2022-10-23T07:50:38.993Z,3.57
2022-10-23T07:53:07.324Z,4.37
2022-10-23T07:55:42.991Z,3.80
2022-10-23T07:58:15.151Z,4.50
2022-10-23T08:00:52.045Z,3.20
2022-10-23T08:03:31.238Z,3.70
2022-10-23T08:06:01.362Z,4.40
2022-10-23T08:08:29.933Z,3.27
2022-10-23T08:11:03.271Z,3.80
2022-10-23T08:13:39.070Z,3.43
2022-10-23T08:16:08.704Z,3.30
2022-10-23T08:18:56.973Z,3.03
2022-10-23T08:21:25.451Z,2.90
2022-10-23T08:23:55.830Z,3.07
2022-10-23T08:26:25.484Z,2.93
2022-10-23T08:28:54.284Z,3.03
2022-10-23T08:31:24.152Z,2.50
2022-10-23T08:34:15.290Z,3.07
2022-10-23T08:36:45.076Z,2.53
2022-10-23T08:39:13.748Z,2.87
2022-10-23T08:41:53.781Z,2.97
2022-10-23T08:44:27.451Z,3.20
2022-10-23T08:47:04.625Z,3.70
2022-10-23T08:49:58.042Z,2.57
2022-10-23T08:52:31.482Z,2.80
2022-10-23T08:55:08.453Z,2.70
2022-10-23T08:57:43.763Z,3.00
2022-10-23T09:00:16.216Z,2.90
2022-10-23T09:02:46.799Z,2.33
2022-10-23T09:05:20.298Z,2.30
2022-10-23T09:08:05.786Z,2.43
2022-10-23T09:11:01.574Z,2.40
2022-10-23T09:13:53.385Z,2.70
2022-10-23T09:16:33.248Z,2.43
2022-10-23T09:19:01.385Z,2.20
2022-10-23T09:21:31.124Z,2.57
2022-10-23T09:23:59.222Z,2.70
2022-10-23T09:26:27.323Z,2.30
2022-10-23T09:29:20.118Z,2.53
2022-10-23T09:31:52.418Z,2.80
2022-10-23T09:34:23.125Z,2.73
2022-10-23T09:39:27.847Z,2.70
2022-10-23T09:41:57.106Z,3.03
2022-10-23T09:44:27.096Z,2.80
2022-10-23T09:46:59.881Z,2.63
2022-10-23T09:49:30.528Z,2.80
2022-10-23T09:52:06.731Z,2.87
2022-10-23T09:54:38.234Z,2.70
2022-10-23T09:57:23.294Z,2.57
2022-10-23T09:59:54.084Z,2.50
2022-10-23T10:02:28.938Z,2.53
2022-10-23T10:05:25.912Z,2.50
2022-10-23T10:08:02.987Z,2.90
2022-10-23T10:10:36.932Z,2.83
2022-10-23T10:13:14.269Z,2.27
2022-10-23T10:15:48.851Z,2.70
2022-10-23T10:18:23.024Z,2.40
2022-10-23T10:21:01.608Z,2.80
2022-10-23T10:23:38.922Z,2.40
2022-10-23T10:26:22.725Z,3.10
2022-10-23T10:29:01.060Z,2.20
2022-10-23T10:31:43.933Z,2.00
2022-10-23T10:34:15.626Z,1.90
2022-10-23T10:36:50.569Z,2.13
2022-10-23T10:39:30.854Z,3.80
2022-10-23T10:42:15.459Z,2.30
2022-10-23T10:44:55.966Z,2.03
2022-10-23T10:47:28.175Z,2.30
2022-10-23T10:50:04.264Z,2.53
2022-10-23T10:53:00.882Z,2.73
2022-10-23T10:55:36.745Z,3.27
2022-10-23T10:58:11.763Z,3.10
2022-10-23T11:00:39.946Z,2.63
2022-10-23T11:03:19.482Z,3.03
2022-10-23T11:05:49.107Z,3.93
2022-10-23T11:08:21.608Z,3.17
2022-10-23T11:10:56.038Z,2.50
2022-10-23T11:13:27.850Z,2.57
2022-10-23T11:16:00.741Z,3.47
2022-10-23T11:18:31.989Z,2.97
2022-10-23T11:21:09.237Z,2.97
2022-10-23T11:24:13.879Z,3.70
2022-10-23T11:26:56.196Z,2.97
2022-10-23T11:29:36.836Z,3.37
2022-10-23T11:32:29.714Z,3.00
2022-10-23T11:35:19.385Z,2.70
2022-10-23T11:37:59.331Z,3.00
2022-10-23T11:40:27.648Z,3.00
2022-10-23T11:42:57.176Z,3.43
2022-10-23T11:45:36.351Z,2.73
2022-10-23T11:48:06.598Z,2.80
2022-10-23T11:50:50.771Z,2.87
2022-10-23T11:53:28.247Z,3.50
2022-10-23T11:56:06.676Z,3.93
2022-10-23T11:58:48.863Z,2.87
2022-10-23T12:01:25.987Z,3.00
2022-10-23T12:03:56.804Z,3.30
2022-10-23T12:06:29.489Z,3.17
2022-10-23T12:09:02.566Z,2.97
2022-10-23T12:11:43.438Z,3.03
2022-10-23T12:14:31.018Z,3.23
2022-10-23T12:16:59.508Z,2.80
2022-10-23T12:19:29.535Z,2.97
2022-10-23T12:22:01.587Z,2.40
2022-10-23T12:24:43.454Z,3.00
2022-10-23T12:27:22.078Z,2.60
2022-10-23T12:30:10.678Z,3.10
2022-10-23T12:33:02.015Z,2.70
2022-10-23T12:35:48.805Z,3.00
2022-10-23T12:38:19.448Z,2.30
2022-10-23T12:40:52.041Z,2.57
2022-10-23T12:43:27.297Z,2.10
2022-10-23T12:45:58.568Z,2.50
2022-10-23T12:48:26.709Z,2.47
2022-10-23T12:50:56.714Z,2.60
2022-10-23T12:53:25.276Z,2.50
2022-10-23T12:55:57.400Z,2.27
2022-10-23T12:58:30.030Z,2.57
2022-10-23T13:01:05.410Z,2.23
2022-10-23T13:03:35.204Z,2.57
2022-10-23T13:06:04.325Z,2.07
2022-10-23T13:08:39.758Z,2.20
2022-10-23T13:11:30.643Z,2.80
2022-10-23T13:14:02.068Z,2.43
2022-10-23T13:16:31.536Z,2.50
2022-10-23T13:18:59.672Z,2.53
2022-10-23T13:21:30.304Z,1.90
2022-10-23T13:23:58.539Z,2.43
2022-10-23T13:26:31.984Z,2.10
2022-10-23T13:29:00.789Z,2.00
2022-10-23T13:31:33.125Z,2.33
2022-10-23T13:34:18.491Z,2.70
2022-10-23T13:37:02.420Z,2.30
2022-10-23T13:39:32.801Z,1.97
2022-10-23T13:42:11.844Z,2.20
2022-10-23T13:44:40.311Z,2.20
2022-10-23T13:47:13.339Z,2.87
2022-10-23T13:49:41.467Z,2.27
2022-10-23T13:52:12.975Z,2.50
2022-10-23T13:54:41.214Z,2.27
2022-10-23T13:57:14.492Z,1.87
2022-10-23T13:59:42.670Z,2.10
2022-10-23T14:02:20.320Z,2.07
2022-10-23T14:04:48.772Z,1.73
2022-10-23T14:07:16.927Z,1.80
2022-10-23T14:09:45.128Z,2.47
2022-10-23T14:12:13.687Z,1.83
2022-10-23T14:14:41.935Z,2.40
2022-10-23T14:17:10.071Z,1.93
2022-10-23T14:19:39.731Z,2.00
2022-10-23T14:22:07.816Z,1.83
2022-10-23T14:24:36.676Z,2.20
2022-10-23T14:27:05.372Z,2.00
2022-10-23T14:29:33.609Z,1.80
2022-10-23T14:32:01.701Z,2.37
2022-10-23T14:34:29.889Z,2.10
2022-10-23T14:37:14.652Z,1.87
2022-10-23T14:39:47.472Z,1.60
2022-10-23T14:42:18.000Z,2.90
2022-10-23T14:44:46.180Z,2.50
2022-10-23T14:47:14.296Z,2.00
2022-10-23T14:49:42.926Z,2.10
2022-10-23T14:52:12.394Z,2.00
2022-10-23T14:54:40.553Z,2.27
2022-10-23T14:57:08.824Z,2.13
2022-10-23T14:59:36.954Z,1.77
2022-10-23T15:02:05.055Z,1.97
2022-10-23T15:04:33.206Z,1.73
2022-10-23T15:07:01.309Z,2.30
2022-10-23T15:09:32.664Z,2.37
2022-10-23T15:12:00.737Z,2.30
2022-10-23T15:14:28.846Z,2.37
2022-10-23T15:16:56.933Z,2.47
2022-10-23T15:19:25.471Z,1.83
2022-10-23T15:21:53.591Z,2.83
2022-10-23T15:24:21.889Z,1.87
2022-10-23T15:26:51.960Z,2.03
2022-10-23T15:29:20.747Z,1.50
2022-10-23T15:31:54.122Z,1.90
2022-10-23T15:34:24.440Z,2.00
2022-10-23T15:36:53.262Z,2.43
2022-10-23T15:39:28.258Z,2.13
2022-10-23T15:41:58.429Z,2.23
2022-10-23T15:44:28.630Z,2.03
2022-10-23T15:46:57.959Z,2.03
2022-10-23T15:49:26.767Z,2.10
2022-10-23T15:51:55.021Z,1.80
2022-10-23T15:54:23.189Z,1.57
2022-10-23T15:56:54.567Z,2.03
2022-10-23T15:59:26.079Z,1.77
2022-10-23T16:01:55.589Z,1.80
2022-10-23T16:04:24.232Z,1.73
2022-10-23T16:06:52.512Z,2.17
2022-10-23T16:09:21.219Z,2.10
2022-10-23T16:11:49.353Z,2.20
2022-10-23T16:14:18.535Z,2.07
2022-10-23T16:16:48.031Z,2.17
2022-10-23T16:19:16.164Z,1.80
2022-10-23T16:21:44.302Z,2.10
2022-10-23T16:24:12.800Z,1.93
2022-10-23T16:26:41.172Z,2.13
2022-10-23T16:29:10.734Z,2.37
2022-10-23T16:31:38.904Z,2.53
2022-10-23T16:34:08.410Z,2.20
2022-10-23T16:36:39.032Z,2.30
2022-10-23T16:39:19.976Z,2.60
2022-10-23T16:42:06.829Z,2.47
2022-10-23T16:45:04.871Z,2.80
2022-10-23T16:47:33.054Z,2.30
2022-10-23T16:50:02.667Z,2.50
2022-10-23T16:52:30.931Z,2.30
2022-10-23T16:54:58.995Z,2.27
2022-10-23T16:57:28.015Z,2.50
2022-10-23T16:59:56.594Z,2.50
2022-10-23T17:02:24.843Z,2.50
2022-10-23T17:04:53.003Z,2.47
2022-10-23T17:07:24.098Z,2.63
2022-10-23T17:09:52.498Z,2.17
2022-10-23T17:12:20.620Z,2.57
2022-10-23T17:14:48.732Z,2.40
2022-10-23T17:17:16.877Z,2.50
2022-10-23T17:19:46.255Z,2.53
2022-10-23T17:22:15.599Z,2.63
2022-10-23T17:24:47.659Z,2.10
2022-10-23T17:27:18.541Z,2.70
2022-10-23T17:29:46.663Z,2.47
2022-10-23T17:32:14.968Z,2.50
2022-10-23T17:34:43.143Z,2.07
2022-10-23T17:37:13.247Z,2.50
2022-10-23T17:39:42.429Z,3.10
2022-10-23T17:42:12.087Z,2.93
2022-10-23T17:44:40.206Z,2.03
2022-10-23T17:47:08.378Z,2.97
2022-10-23T17:49:36.553Z,3.60
2022-10-23T17:52:04.895Z,3.57
2022-10-23T17:54:33.084Z,3.70
2022-10-23T17:57:01.476Z,4.00
2022-10-23T17:59:31.019Z,4.07
2022-10-23T18:02:00.810Z,4.10
2022-10-23T18:04:29.228Z,3.47
2022-10-23T18:06:57.335Z,3.37
2022-10-23T18:09:25.510Z,4.10
2022-10-23T18:11:53.879Z,4.70
2022-10-23T18:14:25.138Z,3.90
2022-10-23T18:16:56.926Z,3.70
2022-10-23T18:19:25.069Z,3.67
2022-10-23T18:21:53.385Z,4.57
2022-10-23T18:24:21.522Z,4.67
2022-10-23T18:26:50.128Z,4.50
2022-10-23T18:29:19.003Z,4.20
2022-10-23T18:31:49.066Z,4.90
2022-10-23T18:34:20.043Z,4.30
2022-10-23T18:36:50.037Z,4.70
2022-10-23T18:39:22.323Z,4.00
2022-10-23T18:41:52.141Z,4.50
2022-10-23T18:44:21.497Z,4.70
2022-10-23T18:46:50.670Z,4.80
2022-10-23T18:49:20.696Z,3.27
2022-10-23T18:51:49.838Z,3.70
2022-10-23T18:54:20.290Z,4.37
2022-10-23T18:56:48.993Z,4.30
2022-10-23T18:59:19.133Z,4.20
2022-10-23T19:01:47.388Z,4.33
2022-10-23T19:04:17.663Z,4.40
2022-10-23T19:06:48.290Z,4.23
2022-10-23T19:09:16.705Z,4.57
2022-10-23T19:11:45.530Z,4.43
2022-10-23T19:14:13.732Z,4.53
2022-10-23T19:16:47.034Z,4.10
2022-10-23T19:19:18.887Z,4.03
2022-10-23T19:21:49.686Z,4.10
2022-10-23T19:24:20.793Z,4.27
2022-10-23T19:26:49.544Z,4.47
2022-10-23T19:29:21.085Z,5.10
2022-10-23T19:31:50.169Z,5.00
2022-10-23T19:34:20.182Z,4.83
2022-10-23T19:36:50.625Z,4.37
2022-10-23T19:39:18.849Z,5.00
2022-10-23T19:41:47.165Z,4.23
2022-10-23T19:44:16.001Z,4.80
2022-10-23T19:46:44.361Z,4.00
2022-10-23T19:49:12.943Z,4.33
2022-10-23T19:51:41.384Z,4.33
2022-10-23T19:54:10.859Z,4.20
2022-10-23T19:56:39.647Z,5.30
2022-10-23T19:59:08.261Z,4.93
2022-10-23T20:01:36.507Z,4.40
2022-10-23T20:04:04.780Z,4.80
2022-10-23T20:06:35.397Z,4.67
2022-10-23T20:09:04.928Z,4.43
2022-10-23T20:11:34.716Z,5.40
2022-10-23T20:14:02.912Z,5.03
2022-10-23T20:16:32.921Z,4.80
2022-10-23T20:19:03.565Z,5.40
2022-10-23T20:21:32.055Z,4.70
2022-10-23T20:24:00.660Z,4.23
2022-10-23T20:26:28.860Z,5.27
2022-10-23T20:28:58.547Z,6.30
2022-10-23T20:31:28.393Z,4.90
2022-10-23T20:33:57.648Z,4.93
2022-10-23T20:36:28.088Z,4.60
2022-10-23T20:38:57.122Z,4.97
2022-10-23T20:41:28.485Z,5.17
2022-10-23T20:43:58.332Z,5.00
2022-10-23T20:46:27.221Z,4.50
2022-10-23T20:48:55.319Z,4.50
2022-10-23T20:51:25.159Z,5.17
2022-10-23T20:53:54.558Z,5.00
2022-10-23T20:56:29.983Z,4.77
2022-10-23T20:59:00.479Z,5.50
2022-10-23T21:01:30.441Z,4.60
2022-10-23T21:04:00.712Z,4.00
2022-10-23T21:06:41.007Z,3.63
2022-10-23T21:09:19.219Z,3.90
2022-10-23T21:11:47.413Z,3.97
2022-10-23T21:14:16.882Z,4.43
2022-10-23T21:16:46.576Z,4.10
2022-10-23T21:19:16.890Z,4.10
2022-10-23T21:21:45.582Z,3.80
2022-10-23T21:24:17.590Z,3.03
2022-10-23T21:26:46.626Z,3.30
2022-10-23T21:29:18.891Z,3.53
2022-10-23T21:31:54.637Z,3.60
2022-10-23T21:34:22.840Z,3.90
2022-10-23T21:39:39.195Z,2.87
2022-10-23T21:42:07.443Z,3.47
2022-10-23T21:44:37.042Z,3.10
2022-10-23T21:47:05.449Z,3.27
2022-10-23T21:49:33.623Z,3.07
2022-10-23T21:52:01.737Z,2.80
2022-10-23T21:54:29.878Z,2.97
2022-10-23T21:56:58.015Z,2.53
2022-10-23T21:59:30.302Z,3.50
2022-10-23T22:02:01.381Z,3.10
2022-10-23T22:04:29.547Z,3.43
2022-10-23T22:06:57.689Z,2.43
2022-10-23T22:09:25.870Z,2.50
2022-10-23T22:11:55.159Z,3.07
2022-10-23T22:14:23.930Z,2.87
2022-10-23T22:16:52.194Z,2.50
2022-10-23T22:19:23.449Z,2.73
2022-10-23T22:21:52.555Z,2.10
2022-10-23T22:24:20.802Z,2.40
2022-10-23T22:26:51.108Z,2.23
2022-10-23T22:29:21.777Z,2.30
2022-10-23T22:31:50.268Z,2.63
2022-10-23T22:34:33.954Z,1.90
2022-10-23T22:37:11.809Z,1.70
2022-10-23T22:39:40.737Z,2.10
2022-10-23T22:42:09.160Z,1.93
2022-10-23T22:44:37.310Z,2.10
2022-10-23T22:47:06.239Z,2.43
2022-10-23T22:49:35.863Z,1.83
2022-10-23T22:52:04.039Z,1.73
2022-10-23T22:54:32.208Z,2.30
2022-10-23T22:57:00.310Z,2.37
2022-10-23T22:59:28.374Z,2.00
2022-10-23T23:01:56.711Z,2.27
2022-10-23T23:04:40.043Z,2.17
2022-10-23T23:07:11.267Z,1.87
2022-10-23T23:09:40.789Z,1.70
2022-10-23T23:12:10.308Z,2.00
2022-10-23T23:14:38.776Z,1.83
2022-10-23T23:17:07.994Z,2.20
2022-10-23T23:19:36.494Z,2.00
2022-10-23T23:22:04.955Z,1.73
2022-10-23T23:24:34.498Z,2.03
2022-10-23T23:27:04.504Z,2.20
2022-10-23T23:29:32.603Z,2.10
2022-10-23T23:32:00.723Z,1.80
2022-10-23T23:34:29.650Z,1.90
2022-10-23T23:36:57.730Z,2.07
2022-10-23T23:39:26.104Z,2.20
2022-10-23T23:41:55.595Z,2.63
2022-10-23T23:44:27.044Z,1.97
2022-10-23T23:46:55.818Z,1.63
2022-10-23T23:49:23.933Z,1.57
2022-10-23T23:51:52.174Z,2.10
2022-10-23T23:54:20.309Z,1.43
2022-10-23T23:56:48.373Z,1.90
2022-10-23T23:59:17.934Z,2.20
